createdAt,value
2018-07-11T00:00:42.573Z,69.10
2018-07-11T00:03:15.593Z,69.10
2018-07-11T00:05:48.424Z,69.30
2018-07-11T00:08:22.409Z,69.70
2018-07-11T00:10:55.193Z,70.10
2018-07-11T00:13:27.787Z,71.30
2018-07-11T00:16:00.779Z,70.80
2018-07-11T00:18:33.785Z,71.20
2018-07-11T00:21:06.400Z,72.00
2018-07-11T00:23:39.182Z,71.60
2018-07-11T00:26:12.556Z,71.80
2018-07-11T00:28:45.307Z,72.00
2018-07-11T00:31:17.909Z,72.50
2018-07-11T00:33:50.693Z,72.30
2018-07-11T00:36:23.452Z,72.50
2018-07-11T00:38:56.334Z,72.20
2018-07-11T00:41:29.116Z,72.60
2018-07-11T00:44:01.896Z,73.00
2018-07-11T00:49:07.502Z,73.80
2018-07-11T00:51:40.165Z,74.10
2018-07-11T00:54:12.957Z,73.90
2018-07-11T00:56:45.722Z,74.20
2018-07-11T00:59:29.714Z,74.20
2018-07-11T01:02:07.164Z,74.50
2018-07-11T01:04:41.461Z,74.70
2018-07-11T01:07:14.161Z,74.80
2018-07-11T01:09:51.333Z,74.60
2018-07-11T01:12:24.063Z,74.60
2018-07-11T01:14:56.875Z,74.90
2018-07-11T01:17:33.743Z,74.80
2018-07-11T01:20:06.440Z,74.90
2018-07-11T01:22:38.920Z,75.10
2018-07-11T01:25:11.858Z,75.40
2018-07-11T01:27:44.352Z,76.10
2018-07-11T01:30:16.913Z,75.60
2018-07-11T01:32:49.722Z,75.70
2018-07-11T01:35:23.878Z,76.10
2018-07-11T01:37:56.589Z,76.10
2018-07-11T01:40:29.293Z,75.80
2018-07-11T01:43:04.981Z,75.70
2018-07-11T01:45:38.062Z,76.00
2018-07-11T01:48:10.755Z,76.30
2018-07-11T01:50:44.017Z,76.90
2018-07-11T01:53:17.065Z,77.20
2018-07-11T01:55:49.677Z,77.50
2018-07-11T01:58:23.330Z,78.40
2018-07-11T02:00:57.556Z,78.30
2018-07-11T02:03:31.883Z,78.50
2018-07-11T02:06:06.817Z,78.60
2018-07-11T02:08:39.734Z,78.70
2018-07-11T02:11:12.427Z,79.10
2018-07-11T02:13:45.252Z,80.10
2018-07-11T02:16:17.963Z,80.10
2018-07-11T02:18:53.939Z,80.20
2018-07-11T02:21:34.085Z,80.10
2018-07-11T02:24:08.380Z,80.40
2018-07-11T02:26:40.869Z,80.70
2018-07-11T02:29:13.812Z,80.50
2018-07-11T02:31:46.735Z,81.30
2018-07-11T02:34:23.155Z,81.70
2018-07-11T02:36:55.795Z,82.40
2018-07-11T02:39:28.452Z,82.70
2018-07-11T02:42:01.639Z,82.60
2018-07-11T02:44:34.263Z,83.00
2018-07-11T02:47:11.513Z,83.10
2018-07-11T02:49:44.389Z,84.30
2018-07-11T02:52:17.009Z,84.20
2018-07-11T02:54:49.890Z,84.30
2018-07-11T02:57:23.697Z,85.80
2018-07-11T02:59:56.503Z,85.40
2018-07-11T03:02:29.678Z,85.20
2018-07-11T03:05:02.235Z,86.50
2018-07-11T03:07:35.911Z,85.40
2018-07-11T03:10:08.700Z,86.10
2018-07-11T03:12:42.019Z,85.60
2018-07-11T03:15:14.652Z,85.60
2018-07-11T03:17:47.383Z,85.90
2018-07-11T03:20:20.669Z,85.30
2018-07-11T03:22:53.593Z,85.10
2018-07-11T03:25:26.249Z,84.90
2018-07-11T03:27:59.439Z,85.00
2018-07-11T03:30:39.241Z,84.90
2018-07-11T03:33:12.754Z,84.60
2018-07-11T03:35:45.591Z,84.50
2018-07-11T03:38:19.202Z,84.20
2018-07-11T03:40:55.537Z,84.10
2018-07-11T03:43:28.587Z,83.80
2018-07-11T03:46:01.143Z,83.60
2018-07-11T03:48:33.989Z,83.50
2018-07-11T03:51:06.800Z,83.50
2018-07-11T03:53:39.914Z,83.30
2018-07-11T03:56:12.491Z,83.30
2018-07-11T03:58:45.902Z,84.00
2018-07-11T04:01:18.398Z,83.50
2018-07-11T04:03:51.044Z,83.50
2018-07-11T04:06:23.822Z,83.50
2018-07-11T04:08:56.464Z,83.60
2018-07-11T04:11:28.444Z,83.70
2018-07-11T04:14:00.624Z,83.50
2018-07-11T04:16:33.205Z,83.40
2018-07-11T04:19:06.700Z,83.80
2018-07-11T04:24:09.733Z,84.30
2018-07-11T04:26:41.859Z,84.10
2018-07-11T04:29:13.831Z,84.10
2018-07-11T04:31:46.068Z,84.30
2018-07-11T04:34:18.200Z,84.10
2018-07-11T04:36:50.396Z,84.60
2018-07-11T04:39:22.492Z,84.80
2018-07-11T04:41:54.850Z,84.40
2018-07-11T04:44:26.931Z,84.60
2018-07-11T04:46:59.016Z,84.80
2018-07-11T04:49:31.318Z,85.30
2018-07-11T04:52:03.440Z,85.80
2018-07-11T04:54:35.848Z,85.50
2018-07-11T04:57:07.971Z,85.80
2018-07-11T04:59:40.156Z,86.10
2018-07-11T05:02:12.341Z,86.60
2018-07-11T05:04:44.638Z,86.00
2018-07-11T05:07:16.684Z,87.20
2018-07-11T05:09:48.823Z,87.50
2018-07-11T05:12:21.094Z,87.30
2018-07-11T05:14:53.227Z,87.50
2018-07-11T05:21:00.279Z,87.30
2018-07-11T05:23:32.339Z,87.70
2018-07-11T05:26:04.449Z,87.10
2018-07-11T05:28:36.622Z,87.70
2018-07-11T05:31:08.770Z,87.90
2018-07-11T05:33:40.989Z,88.40
2018-07-11T05:36:14.780Z,88.50
2018-07-11T05:38:47.105Z,88.90
2018-07-11T05:41:19.140Z,88.70
2018-07-11T05:43:51.441Z,88.80
2018-07-11T05:46:24.182Z,88.60
2018-07-11T05:48:56.298Z,88.50
2018-07-11T05:51:28.455Z,88.60
2018-07-11T05:54:00.581Z,88.70
2018-07-11T05:56:32.774Z,88.30
2018-07-11T05:59:05.677Z,89.30
2018-07-11T06:01:37.829Z,89.40
2018-07-11T06:04:09.844Z,89.90
2018-07-11T06:06:41.971Z,90.10
2018-07-11T06:09:14.009Z,90.00
2018-07-11T06:14:36.695Z,90.10
2018-07-11T06:17:08.756Z,90.10
2018-07-11T06:19:40.839Z,90.30
2018-07-11T06:22:12.818Z,90.30
2018-07-11T06:24:44.847Z,90.30
2018-07-11T06:27:16.946Z,90.70
2018-07-11T06:29:49.124Z,90.60
2018-07-11T06:32:21.372Z,90.50
2018-07-11T06:34:53.985Z,90.70
2018-07-11T06:37:26.099Z,90.70
2018-07-11T06:39:58.695Z,90.90
2018-07-11T06:42:30.833Z,91.00
2018-07-11T06:45:02.883Z,91.30
2018-07-11T06:47:35.000Z,91.20
2018-07-11T06:50:07.069Z,91.50
2018-07-11T06:52:39.200Z,91.70
2018-07-11T06:55:11.278Z,91.80
2018-07-11T06:57:43.408Z,91.80
2018-07-11T07:00:16.009Z,91.90
2018-07-11T07:02:48.197Z,91.90
2018-07-11T07:05:20.408Z,92.20
2018-07-11T07:07:52.518Z,92.30
2018-07-11T07:10:24.712Z,92.20
2018-07-11T07:12:56.771Z,92.50
2018-07-11T07:15:28.944Z,92.50
2018-07-11T07:18:00.997Z,92.70
2018-07-11T07:20:33.080Z,92.60
2018-07-11T07:23:06.003Z,92.70
2018-07-11T07:25:38.118Z,92.60
2018-07-11T07:28:10.047Z,92.50
2018-07-11T07:30:42.116Z,92.50
2018-07-11T07:33:14.108Z,92.50
2018-07-11T07:35:46.287Z,92.50
2018-07-11T07:38:18.455Z,92.50
2018-07-11T07:40:50.444Z,92.70
2018-07-11T07:43:22.753Z,92.80
2018-07-11T07:45:54.946Z,92.80
2018-07-11T07:48:27.053Z,92.70
2018-07-11T07:50:59.234Z,92.80
2018-07-11T07:53:31.394Z,92.70
2018-07-11T07:56:03.619Z,92.70
2018-07-11T07:58:35.867Z,92.60
2018-07-11T08:01:08.014Z,92.50
2018-07-11T08:03:40.248Z,92.50
2018-07-11T08:06:12.418Z,92.50
2018-07-11T08:08:44.506Z,92.70
2018-07-11T08:11:16.608Z,92.50
2018-07-11T08:13:48.742Z,92.50
2018-07-11T08:16:20.971Z,92.50
2018-07-11T08:18:53.054Z,92.40
2018-07-11T08:21:25.148Z,92.30
2018-07-11T08:24:06.812Z,92.30
2018-07-11T08:26:48.337Z,92.30
2018-07-11T08:29:36.528Z,92.40
2018-07-11T08:36:32.313Z,92.40
2018-07-11T08:39:13.809Z,92.50
2018-07-11T08:44:03.509Z,92.70
2018-07-11T08:47:59.914Z,92.70
2018-07-11T08:50:52.276Z,92.80
2018-07-11T08:53:35.493Z,92.70
2018-07-11T08:58:20.676Z,92.80
2018-07-11T09:03:10.540Z,92.80
2018-07-11T09:05:58.313Z,92.60
2018-07-11T09:10:49.796Z,92.20
2018-07-11T09:16:13.437Z,92.10
2018-07-11T09:23:48.114Z,92.20
2018-07-11T09:26:20.191Z,92.00
2018-07-11T09:28:52.295Z,91.90
2018-07-11T09:31:24.491Z,92.10
2018-07-11T09:33:56.563Z,92.30
2018-07-11T09:36:28.629Z,92.40
2018-07-11T09:39:00.668Z,92.50
2018-07-11T09:41:32.900Z,92.50
2018-07-11T09:44:05.362Z,92.50
2018-07-11T09:46:37.467Z,92.70
2018-07-11T09:49:10.328Z,92.60
2018-07-11T09:51:42.739Z,92.70
2018-07-11T09:54:14.804Z,92.80
2018-07-11T09:56:47.013Z,92.90
2018-07-11T09:59:19.166Z,92.90
2018-07-11T10:04:22.164Z,93.20
2018-07-11T10:06:54.280Z,93.10
2018-07-11T10:09:26.282Z,93.50
2018-07-11T10:11:58.558Z,93.20
2018-07-11T10:14:30.666Z,93.10
2018-07-11T10:17:03.456Z,93.40
2018-07-11T10:19:37.017Z,93.10
2018-07-11T10:22:09.091Z,93.10
2018-07-11T10:24:41.387Z,93.10
2018-07-11T10:27:13.530Z,93.20
2018-07-11T10:29:45.576Z,93.00
2018-07-11T10:32:21.189Z,92.90
2018-07-11T10:34:53.337Z,93.00
2018-07-11T10:37:25.528Z,93.10
2018-07-11T10:39:57.707Z,93.10
2018-07-11T10:42:30.244Z,93.10
2018-07-11T10:45:03.123Z,93.10
2018-07-11T10:47:35.985Z,93.10
2018-07-11T10:50:08.218Z,93.00
2018-07-11T10:52:40.500Z,93.00
2018-07-11T10:55:12.675Z,92.90
2018-07-11T10:57:46.078Z,92.90
2018-07-11T11:00:35.967Z,92.90
2018-07-11T11:02:54.871Z,92.80
2018-07-11T11:07:57.939Z,92.80
2018-07-11T11:10:30.244Z,92.80
2018-07-11T11:13:02.465Z,92.80
2018-07-11T11:15:34.734Z,92.80
2018-07-11T11:18:07.178Z,92.70
2018-07-11T11:20:39.441Z,92.60
2018-07-11T11:23:11.807Z,92.60
2018-07-11T11:25:44.607Z,92.60
2018-07-11T11:28:16.771Z,92.60
2018-07-11T11:30:48.767Z,92.70
2018-07-11T11:33:21.185Z,92.70
2018-07-11T11:35:53.370Z,92.80
2018-07-11T11:38:25.511Z,93.00
2018-07-11T11:41:06.509Z,93.00
2018-07-11T11:43:50.302Z,93.50
2018-07-11T11:46:35.113Z,93.10
2018-07-11T11:49:14.646Z,93.20
2018-07-11T11:51:55.848Z,93.20
2018-07-11T11:54:40.374Z,93.30
2018-07-11T11:57:21.773Z,93.20
2018-07-11T11:59:54.261Z,93.60
2018-07-11T12:02:26.941Z,93.20
2018-07-11T12:04:59.046Z,93.20
2018-07-11T12:07:31.244Z,93.20
2018-07-11T12:10:03.249Z,93.20
2018-07-11T12:12:35.527Z,93.10
2018-07-11T12:15:08.242Z,93.30
2018-07-11T12:17:40.297Z,93.20
2018-07-11T12:20:13.316Z,93.20
2018-07-11T12:22:50.141Z,93.10
2018-07-11T12:25:34.615Z,93.00
2018-07-11T12:28:15.857Z,92.80
2018-07-11T12:31:06.631Z,92.80
2018-07-11T12:33:49.225Z,92.60
2018-07-11T12:36:32.792Z,92.60
2018-07-11T12:42:08.326Z,92.40
2018-07-11T12:44:48.849Z,92.10
2018-07-11T12:47:27.553Z,91.80
2018-07-11T12:50:13.354Z,91.70
2018-07-11T12:53:03.538Z,91.60
2018-07-11T12:55:57.774Z,91.00
2018-07-11T13:01:22.750Z,91.10
2018-07-11T13:04:01.241Z,90.70
2018-07-11T13:06:37.226Z,90.50
2018-07-11T13:09:10.472Z,90.60
2018-07-11T13:11:43.071Z,90.40
2018-07-11T13:14:15.274Z,90.10
2018-07-11T13:16:50.304Z,90.00
2018-07-11T13:19:28.100Z,89.30
2018-07-11T13:22:03.505Z,88.90
2018-07-11T13:24:38.063Z,87.80
2018-07-11T13:27:11.838Z,87.00
2018-07-11T13:29:44.615Z,87.10
2018-07-11T13:32:16.724Z,86.10
2018-07-11T13:34:53.464Z,85.50
2018-07-11T13:37:26.862Z,85.30
2018-07-11T13:39:59.756Z,84.30
2018-07-11T13:42:32.016Z,83.50
2018-07-11T13:45:04.554Z,83.20
2018-07-11T13:47:37.166Z,83.80
2018-07-11T13:50:10.060Z,82.30
2018-07-11T13:52:43.074Z,82.80
2018-07-11T13:55:15.339Z,82.30
2018-07-11T13:57:47.578Z,82.00
2018-07-11T14:00:19.917Z,82.60
2018-07-11T14:02:51.989Z,82.90
2018-07-11T14:05:24.672Z,82.30
2018-07-11T14:07:56.716Z,81.80
2018-07-11T14:10:28.923Z,81.80
2018-07-11T14:13:03.625Z,82.30
2018-07-11T14:15:36.141Z,81.80
2018-07-11T14:18:08.993Z,81.30
2018-07-11T14:20:45.720Z,81.60
2018-07-11T14:23:21.997Z,81.40
2018-07-11T14:25:54.650Z,81.00
2018-07-11T14:28:31.078Z,81.40
2018-07-11T14:31:04.108Z,81.40
2018-07-11T14:33:39.218Z,81.10
2018-07-11T14:36:11.573Z,81.40
2018-07-11T14:38:44.976Z,80.80
2018-07-11T14:41:17.125Z,79.50
2018-07-11T14:43:53.832Z,80.00
2018-07-11T14:46:28.807Z,78.80
2018-07-11T14:49:02.834Z,77.70
2018-07-11T14:51:36.786Z,78.10
2018-07-11T14:54:09.429Z,78.00
2018-07-11T14:56:41.724Z,77.90
2018-07-11T14:59:14.019Z,75.80
2018-07-11T15:01:46.121Z,76.80
2018-07-11T15:04:18.355Z,76.50
2018-07-11T15:06:50.536Z,75.40
2018-07-11T15:09:23.120Z,75.50
2018-07-11T15:11:56.408Z,75.00
2018-07-11T15:14:28.633Z,74.60
2018-07-11T15:17:01.066Z,75.30
2018-07-11T15:19:33.371Z,75.20
2018-07-11T15:22:05.484Z,74.40
2018-07-11T15:24:37.478Z,74.60
2018-07-11T15:27:10.360Z,75.00
2018-07-11T15:29:42.814Z,74.30
2018-07-11T15:32:16.399Z,72.90
2018-07-11T15:34:50.213Z,72.30
2018-07-11T15:37:23.300Z,71.50
2018-07-11T15:39:56.386Z,72.50
2018-07-11T15:42:28.822Z,72.70
2018-07-11T15:45:01.256Z,72.60
2018-07-11T15:47:35.051Z,72.80
2018-07-11T15:50:07.145Z,72.30
2018-07-11T15:52:40.439Z,72.80
2018-07-11T15:55:12.730Z,73.40
2018-07-11T16:01:28.748Z,73.10
2018-07-11T16:04:01.312Z,71.80
2018-07-11T16:06:33.476Z,72.50
2018-07-11T16:09:08.671Z,71.90
2018-07-11T16:11:41.415Z,70.60
2018-07-11T16:14:15.154Z,71.00
2018-07-11T16:16:47.547Z,70.50
2018-07-11T16:19:19.843Z,70.00
2018-07-11T16:21:53.094Z,70.00
2018-07-11T16:24:26.702Z,69.00
2018-07-11T16:26:59.362Z,68.60
2018-07-11T16:29:32.064Z,67.90
2018-07-11T16:32:08.058Z,68.00
2018-07-11T16:34:41.157Z,67.60
2018-07-11T16:37:14.235Z,68.50
2018-07-11T16:39:46.687Z,68.70
2018-07-11T16:42:21.162Z,68.40
2018-07-11T16:44:53.956Z,67.60
2018-07-11T16:47:26.927Z,67.60
2018-07-11T16:50:00.417Z,68.50
2018-07-11T16:52:33.080Z,68.40
2018-07-11T16:55:05.286Z,67.00
2018-07-11T16:57:46.425Z,67.10
2018-07-11T17:00:19.916Z,67.00
2018-07-11T17:02:56.287Z,68.10
2018-07-11T17:05:28.714Z,68.20
2018-07-11T17:08:01.271Z,68.00
2018-07-11T17:10:33.823Z,67.40
2018-07-11T17:13:18.293Z,68.00
2018-07-11T17:15:52.102Z,67.70
2018-07-11T17:21:03.507Z,67.40
2018-07-11T17:23:35.773Z,68.00
2018-07-11T17:26:08.460Z,67.80
2018-07-11T17:28:40.881Z,68.30
2018-07-11T17:31:12.990Z,68.10
2018-07-11T17:33:45.877Z,67.40
2018-07-11T17:36:18.108Z,66.50
2018-07-11T17:38:51.319Z,66.10
2018-07-11T17:41:23.630Z,66.80
2018-07-11T17:43:58.245Z,67.50
2018-07-11T17:46:30.477Z,65.20
2018-07-11T17:49:10.512Z,65.00
2018-07-11T17:52:05.663Z,64.00
2018-07-11T17:57:25.656Z,62.30
2018-07-11T18:00:12.180Z,62.10
2018-07-11T18:02:59.367Z,61.30
2018-07-11T18:05:37.789Z,59.70
2018-07-11T18:08:14.329Z,60.40
2018-07-11T18:10:52.705Z,61.40
2018-07-11T18:13:49.789Z,60.10
2018-07-11T18:16:49.251Z,61.10
2018-07-11T18:21:43.221Z,61.00
2018-07-11T18:24:20.413Z,61.10
2018-07-11T18:29:43.599Z,61.00
2018-07-11T18:34:37.905Z,59.00
2018-07-11T18:39:24.169Z,59.30
2018-07-11T18:44:15.299Z,58.10
2018-07-11T18:47:02.218Z,58.90
2018-07-11T18:49:46.958Z,58.50
2018-07-11T18:52:36.972Z,58.70
2018-07-11T18:55:27.684Z,59.00
2018-07-11T18:58:47.722Z,59.20
2018-07-11T19:01:29.253Z,60.20
2018-07-11T19:04:36.280Z,60.00
2018-07-11T19:07:22.576Z,59.90
2018-07-11T19:09:58.379Z,59.50
2018-07-11T19:12:36.283Z,59.60
2018-07-11T19:15:13.185Z,59.90
2018-07-11T19:17:59.774Z,60.30
2018-07-11T19:20:40.164Z,60.30
2018-07-11T19:23:26.147Z,60.80
2018-07-11T19:27:05.625Z,61.20
2018-07-11T19:29:57.320Z,61.80
2018-07-11T19:33:11.667Z,62.00
2018-07-11T19:36:28.896Z,62.50
2018-07-11T19:39:13.343Z,61.70
2018-07-11T19:41:54.714Z,62.90
2018-07-11T19:45:39.989Z,64.10
2018-07-11T19:50:23.911Z,64.60
2018-07-11T19:53:16.512Z,62.50
2018-07-11T19:57:02.728Z,61.00
2018-07-11T19:59:37.904Z,61.10
2018-07-11T20:02:12.951Z,60.30
2018-07-11T20:04:47.044Z,59.60
2018-07-11T20:07:22.079Z,59.50
2018-07-11T20:09:54.718Z,59.00
2018-07-11T20:12:27.144Z,58.90
2018-07-11T20:15:00.945Z,59.20
2018-07-11T20:17:33.590Z,60.90
2018-07-11T20:22:37.991Z,61.20
2018-07-11T20:25:11.332Z,59.80
2018-07-11T20:27:45.179Z,60.50
2018-07-11T20:30:20.459Z,60.80
2018-07-11T20:32:53.154Z,60.30
2018-07-11T20:35:25.962Z,60.60
2018-07-11T20:38:00.436Z,60.40
2018-07-11T20:40:33.767Z,60.60
2018-07-11T20:43:07.123Z,61.10
2018-07-11T20:45:48.264Z,60.80
2018-07-11T20:48:24.149Z,61.50
2018-07-11T20:50:57.909Z,61.50
2018-07-11T20:53:30.481Z,61.90
2018-07-11T20:56:05.689Z,62.00
2018-07-11T20:58:50.842Z,61.90
2018-07-11T21:01:33.516Z,62.00
2018-07-11T21:04:22.104Z,62.00
2018-07-11T21:07:08.190Z,62.10
2018-07-11T21:09:53.319Z,62.10
2018-07-11T21:12:37.202Z,62.20
2018-07-11T21:30:21.311Z,62.70
2018-07-11T21:32:54.486Z,63.20
2018-07-11T21:35:29.206Z,66.30
2018-07-11T21:38:04.484Z,66.90
2018-07-11T21:40:42.012Z,67.50
2018-07-11T21:43:15.637Z,67.20
2018-07-11T21:45:50.717Z,67.30
2018-07-11T21:48:25.001Z,67.30
2018-07-11T21:50:58.233Z,66.50
2018-07-11T21:53:34.395Z,66.50
2018-07-11T21:56:08.149Z,66.00
2018-07-11T21:58:42.038Z,66.10
2018-07-11T22:01:15.123Z,66.20
2018-07-11T22:03:48.660Z,66.00
2018-07-11T22:06:21.548Z,65.70
2018-07-11T22:08:54.207Z,66.30
2018-07-11T22:11:27.327Z,65.50
2018-07-11T22:14:00.095Z,65.70
2018-07-11T22:16:32.967Z,65.10
2018-07-11T22:19:05.787Z,65.30
2018-07-11T22:21:35.666Z,65.60
2018-07-11T22:24:05.688Z,66.40
2018-07-11T22:26:35.580Z,66.60
2018-07-11T22:29:05.439Z,66.90
2018-07-11T22:31:35.489Z,67.10
2018-07-11T22:34:05.299Z,67.40
2018-07-11T22:36:35.181Z,67.30
2018-07-11T22:39:05.120Z,67.50
2018-07-11T22:41:41.749Z,68.00
2018-07-11T22:44:11.742Z,68.40
2018-07-11T22:46:41.706Z,68.60
2018-07-11T22:49:12.390Z,68.90
2018-07-11T22:51:42.496Z,69.50
2018-07-11T22:54:12.347Z,69.60
2018-07-11T22:56:42.092Z,69.80
2018-07-11T22:59:12.005Z,70.30
2018-07-11T23:01:42.621Z,70.30
2018-07-11T23:04:12.574Z,70.60
2018-07-11T23:06:42.613Z,71.00
2018-07-11T23:09:12.564Z,71.80
2018-07-11T23:11:42.305Z,71.70
2018-07-11T23:14:12.154Z,71.80
2018-07-11T23:16:42.233Z,72.00
2018-07-11T23:19:12.038Z,72.40
2018-07-11T23:21:42.145Z,73.00
2018-07-11T23:24:12.839Z,72.50
2018-07-11T23:26:43.385Z,72.80
2018-07-11T23:29:13.983Z,72.80
2018-07-11T23:31:44.077Z,73.30
2018-07-11T23:34:13.437Z,73.40
2018-07-11T23:36:42.958Z,73.80
2018-07-11T23:39:13.065Z,74.40
2018-07-11T23:41:42.569Z,74.50
2018-07-11T23:44:12.980Z,74.20
2018-07-11T23:46:42.310Z,74.30
2018-07-11T23:49:13.081Z,74.30
2018-07-11T23:51:44.937Z,74.40
2018-07-11T23:54:15.099Z,74.50
2018-07-11T23:56:44.417Z,74.60
2018-07-11T23:59:13.707Z,74.80
